Time;durP1;ratioP1;P1;durP2;ratioP2;P2;SDS_P1;SDS_P2;PMS_P1;PMS_P2;Temp;Humidity;BMP_temperature;BMP_pressure;BME280_temperature;BME280_humidity;BME280_pressure;Samples;Min_cycle;Max_cycle;Signal;HPM_P1;HPM_P2
2022/03/30 00:04:52;;;;;;;20.88;15.18;;;15.00;74.90;;;;;;10908108;32;20015;-71
2022/03/30 00:10:54;;;;;;;18.52;12.93;;;14.90;74.80;;;;;;10905280;32;20220;-71
2022/03/30 00:16:56;;;;;;;10.88;8.13;;;14.80;75.10;;;;;;10907505;32;20059;-72
2022/03/30 00:22:58;;;;;;;14.48;12.18;;;14.70;75.20;;;;;;10907246;32;20041;-72
2022/03/30 00:29:01;;;;;;;11.82;10.23;;;14.70;75.40;;;;;;10906999;32;20097;-71
2022/03/30 00:35:04;;;;;;;12.37;9.20;;;14.70;75.40;;;;;;10893437;32;20042;-71
2022/03/30 00:41:07;;;;;;;10.52;8.05;;;14.70;75.40;;;;;;10902421;32;20081;-72
2022/03/30 00:47:19;;;;;;;10.85;8.18;;;14.60;75.30;;;;;;10906458;32;20049;-71
2022/03/30 00:53:21;;;;;;;11.90;9.07;;;14.60;75.40;;;;;;10906209;32;20023;-71
2022/03/30 00:59:23;;;;;;;11.60;8.60;;;14.50;75.40;;;;;;10903478;32;20030;-71
2022/03/30 01:05:25;;;;;;;20.70;10.10;;;14.60;75.60;;;;;;10905726;32;20027;-71
2022/03/30 01:11:28;;;;;;;15.93;7.18;;;14.60;75.60;;;;;;10901136;32;20031;-71
2022/03/30 01:17:30;;;;;;;13.85;9.07;;;14.60;75.20;;;;;;10905308;32;20276;-72
2022/03/30 01:23:35;;;;;;;11.38;7.60;;;14.50;75.30;;;;;;10891869;32;20020;-71
2022/03/30 01:35:57;;;;;;;9.23;6.22;;;14.50;75.00;;;;;;10904726;32;20023;-71
2022/03/30 01:41:59;;;;;;;11.27;8.02;;;14.50;75.10;;;;;;10904671;32;20027;-71
2022/03/30 01:48:03;;;;;;;16.48;9.63;;;14.50;75.20;;;;;;10904648;32;20046;-72
2022/03/30 01:54:05;;;;;;;18.50;6.60;;;14.50;75.20;;;;;;10904327;32;20027;-72
2022/03/30 02:00:10;;;;;;;9.65;7.32;;;14.50;75.10;;;;;;10904219;32;20035;-71
2022/03/30 02:06:15;;;;;;;8.48;6.00;;;14.50;75.00;;;;;;10904087;32;20151;-71
2022/03/30 02:12:17;;;;;;;8.55;5.85;;;14.50;74.80;;;;;;10903996;32;20050;-71
2022/03/30 02:18:20;;;;;;;12.82;7.75;;;14.50;75.20;;;;;;10903978;32;20384;-71
2022/03/30 02:24:22;;;;;;;17.52;9.23;;;14.40;75.30;;;;;;10911369;32;20020;-71
2022/03/30 02:30:24;;;;;;;10.07;6.82;;;14.30;75.40;;;;;;10911299;32;20046;-71
2022/03/30 02:36:26;;;;;;;14.82;9.35;;;14.40;75.20;;;;;;10910983;32;20055;-71
2022/03/30 02:42:28;;;;;;;13.52;6.85;;;14.40;75.30;;;;;;10910731;32;20050;-71
2022/03/30 02:48:33;;;;;;;6.55;4.53;;;14.40;74.90;;;;;;10910577;32;20293;-71
2022/03/30 02:54:35;;;;;;;10.07;6.05;;;14.30;74.80;;;;;;10910186;32;20030;-71
2022/03/30 03:00:39;;;;;;;7.40;3.75;;;14.30;74.70;;;;;;10910258;32;20370;-71
2022/03/30 03:06:41;;;;;;;6.80;5.00;;;14.30;74.60;;;;;;10896632;32;20030;-71
2022/03/30 03:12:43;;;;;;;9.38;6.37;;;14.30;75.10;;;;;;10909647;32;20027;-71
2022/03/30 03:18:45;;;;;;;8.48;5.03;;;14.30;74.80;;;;;;10909469;32;20098;-71
2022/03/30 03:24:47;;;;;;;8.10;5.35;;;14.30;74.90;;;;;;10909348;32;20051;-71
2022/03/30 03:30:49;;;;;;;10.55;7.57;;;14.20;74.80;;;;;;10909028;32;20383;-71
2022/03/30 03:36:51;;;;;;;11.32;6.68;;;14.20;75.10;;;;;;10909197;32;20430;-71
2022/03/30 03:42:53;;;;;;;9.07;4.62;;;14.20;74.90;;;;;;10908805;32;20035;-71
2022/03/30 03:48:56;;;;;;;9.00;5.65;;;14.20;74.70;;;;;;10908591;32;20305;-71
2022/03/30 03:54:58;;;;;;;10.55;7.62;;;14.10;75.10;;;;;;10908327;32;20036;-71
2022/03/30 04:01:01;;;;;;;5.68;3.95;;;14.20;75.30;;;;;;10908037;32;20057;-71
2022/03/30 04:07:03;;;;;;;6.30;4.45;;;14.20;75.10;;;;;;10906020;32;20050;-71
2022/03/30 04:13:06;;;;;;;14.35;6.20;;;14.20;75.10;;;;;;10907615;32;20030;-71
2022/03/30 04:19:08;;;;;;;7.85;4.45;;;14.20;75.00;;;;;;10907477;32;20343;-71
2022/03/30 04:25:29;;;;;;;10.75;7.00;;;14.10;74.70;;;;;;10907278;32;20027;-71
2022/03/30 04:31:32;;;;;;;9.98;7.20;;;14.10;74.80;;;;;;10893637;32;20070;-71
2022/03/30 04:37:34;;;;;;;9.32;6.47;;;14.10;74.80;;;;;;10906767;32;20023;-71
2022/03/30 04:43:37;;;;;;;7.75;4.87;;;14.10;74.80;;;;;;10892782;32;20086;-71
2022/03/30 04:49:39;;;;;;;11.10;5.22;;;14.10;75.00;;;;;;10906389;32;20031;-71
2022/03/30 04:55:42;;;;;;;8.07;5.12;;;14.00;75.20;;;;;;10906062;32;20061;-71
2022/03/30 05:01:44;;;;;;;7.28;4.72;;;13.90;75.60;;;;;;10905845;32;20066;-71
2022/03/30 05:08:06;;;;;;;6.30;3.70;;;13.80;76.00;;;;;;10905711;32;20023;-71
2022/03/30 05:14:08;;;;;;;10.80;5.53;;;13.70;76.10;;;;;;10905626;32;20403;-71
2022/03/30 05:20:11;;;;;;;12.18;7.75;;;13.80;76.20;;;;;;10905230;32;20046;-72
2022/03/30 05:26:13;;;;;;;7.90;5.00;;;13.80;76.00;;;;;;10891693;32;20035;-71
2022/03/30 05:32:16;;;;;;;5.10;3.75;;;14.00;75.70;;;;;;10904951;32;20368;-71
2022/03/30 05:38:18;;;;;;;12.75;6.53;;;14.10;75.60;;;;;;10904867;32;20294;-71
2022/03/30 05:44:20;;;;;;;8.63;5.95;;;14.20;75.50;;;;;;10904563;32;20023;-71
2022/03/30 05:50:23;;;;;;;6.28;4.75;;;14.30;75.20;;;;;;10886997;32;20046;-71
2022/03/30 06:02:46;;;;;;;9.90;6.10;;;14.40;74.90;;;;;;10904057;32;20070;-71
2022/03/30 06:08:48;;;;;;;11.95;7.80;;;14.50;74.70;;;;;;10902682;32;20404;-71
2022/03/30 06:14:51;;;;;;;20.83;5.47;;;14.70;74.80;;;;;;10905449;32;20035;-71
2022/03/30 06:20:55;;;;;;;12.52;6.25;;;14.80;74.50;;;;;;10920872;32;20058;-71
2022/03/30 06:26:57;;;;;;;10.35;6.62;;;14.90;74.20;;;;;;10903542;32;20054;-71
2022/03/30 06:33:00;;;;;;;11.80;7.35;;;15.10;73.80;;;;;;10908407;32;20043;-71
2022/03/30 06:39:02;;;;;;;7.43;4.65;;;15.10;73.50;;;;;;10902218;32;20047;-71
2022/03/30 06:45:07;;;;;;;13.27;7.90;;;15.10;73.40;;;;;;10912682;32;20058;-71
2022/03/30 06:51:09;;;;;;;8.18;5.32;;;15.30;73.60;;;;;;10905603;32;20324;-71
2022/03/30 06:57:16;;;;;;;12.57;7.62;;;15.30;73.50;;;;;;10903129;32;20046;-71
2022/03/30 07:03:20;;;;;;;11.15;7.10;;;15.40;73.30;;;;;;10902856;32;20442;-71
2022/03/30 07:15:43;;;;;;;11.48;6.62;;;15.50;72.90;;;;;;10909492;32;20026;-71
2022/03/30 07:21:48;;;;;;;16.33;7.25;;;15.40;73.20;;;;;;10481476;27;12085613;-71
2022/03/30 07:27:54;;;;;;;12.63;7.60;;;15.30;73.30;;;;;;10831247;32;20032;-71
2022/03/30 07:33:56;;;;;;;8.93;6.05;;;15.40;73.30;;;;;;10831273;32;20028;-71
2022/03/30 07:39:59;;;;;;;11.48;8.07;;;15.50;73.20;;;;;;10829935;32;20020;-71
2022/03/30 07:46:02;;;;;;;10.20;5.97;;;15.50;73.10;;;;;;10854339;32;20399;-71
2022/03/30 07:52:05;;;;;;;16.33;9.80;;;15.30;73.30;;;;;;10871064;32;20316;-71
2022/03/30 07:58:07;;;;;;;18.20;7.93;;;15.40;73.00;;;;;;10870905;32;20032;-71
2022/03/30 08:04:09;;;;;;;16.62;10.20;;;15.30;72.90;;;;;;10869585;32;20058;-71
2022/03/30 08:10:12;;;;;;;9.88;6.68;;;15.00;73.70;;;;;;10866263;32;20023;-71
2022/03/30 08:16:14;;;;;;;17.65;11.85;;;14.80;74.50;;;;;;10869204;32;20058;-72
2022/03/30 08:22:28;;;;;;;14.27;9.68;;;14.80;74.20;;;;;;10869518;32;20019;-71
2022/03/30 08:28:30;;;;;;;10.07;6.57;;;14.50;75.10;;;;;;10854255;32;20035;-71
2022/03/30 08:34:32;;;;;;;7.60;5.45;;;14.50;76.50;;;;;;10869233;32;20024;-73
2022/03/30 08:40:35;;;;;;;11.45;7.62;;;14.80;75.80;;;;;;10864894;32;20024;-71
2022/03/30 08:46:38;;;;;;;10.35;5.28;;;14.90;75.40;;;;;;10869461;32;20070;-71
2022/03/30 08:52:41;;;;;;;8.32;5.70;;;15.10;75.30;;;;;;10868535;32;20049;-71
2022/03/30 08:58:43;;;;;;;9.20;5.03;;;15.30;75.00;;;;;;10868624;32;20080;-71
2022/03/30 09:04:47;;;;;;;11.68;7.37;;;15.50;74.50;;;;;;10867277;32;20062;-70
2022/03/30 09:10:52;;;;;;;37.80;11.82;;;15.60;73.90;;;;;;10868280;32;20380;-70
2022/03/30 09:16:59;;;;;;;29.98;11.05;;;15.50;73.50;;;;;;10867659;32;20069;-70
2022/03/30 09:23:01;;;;;;;17.50;8.60;;;15.50;73.80;;;;;;10866361;32;20380;-70
2022/03/30 09:29:05;;;;;;;15.40;11.50;;;15.70;73.60;;;;;;10866234;32;20035;-70
2022/03/30 09:35:24;;;;;;;16.55;9.40;;;15.80;72.50;;;;;;10866859;32;20046;-71
2022/03/30 09:41:43;;;;;;;8.10;5.55;;;15.70;72.60;;;;;;10865863;32;20054;-71
2022/03/30 09:47:45;;;;;;;20.50;7.78;;;15.50;73.10;;;;;;10866302;32;20397;-71
2022/03/30 09:53:48;;;;;;;14.63;10.63;;;15.60;73.70;;;;;;10866987;32;20066;-72
2022/03/30 10:00:12;;;;;;;10.00;5.57;;;15.70;73.50;;;;;;10866850;32;20376;-71
2022/03/30 10:06:40;;;;;;;10.38;6.55;;;15.60;73.30;;;;;;10866624;32;20341;-71
2022/03/30 10:12:43;;;;;;;7.67;5.13;;;15.70;73.70;;;;;;10860493;32;20035;-71
2022/03/30 10:18:47;;;;;;;13.98;8.73;;;15.70;74.20;;;;;;10866481;32;20042;-71
2022/03/30 10:24:55;;;;;;;8.57;6.07;;;15.60;74.20;;;;;;10862308;32;20027;-70
2022/03/30 10:30:58;;;;;;;11.37;7.77;;;15.70;74.10;;;;;;10866342;32;20364;-70
2022/03/30 10:37:09;;;;;;;10.32;6.10;;;15.80;73.70;;;;;;10866129;32;20045;-71
2022/03/30 10:43:26;;;;;;;8.95;6.10;;;15.70;73.30;;;;;;10870640;32;20058;-71
2022/03/30 10:49:42;;;;;;;12.27;6.53;;;15.60;73.30;;;;;;10869180;32;20059;-71
2022/03/30 10:55:44;;;;;;;15.23;8.55;;;15.50;72.80;;;;;;10872812;32;20027;-71
2022/03/30 11:01:49;;;;;;;16.65;9.00;;;15.60;73.40;;;;;;10872899;32;20024;-72
2022/03/30 11:07:52;;;;;;;18.58;10.90;;;15.50;73.70;;;;;;10872675;32;20054;-72
2022/03/30 11:14:26;;;;;;;9.38;6.25;;;15.60;74.00;;;;;;10871967;32;20028;-73
2022/03/30 11:20:28;;;;;;;9.68;6.18;;;15.30;75.30;;;;;;10871383;32;20074;-73
2022/03/30 11:26:48;;;;;;;10.07;7.05;;;15.50;75.20;;;;;;10872035;32;20335;-73
2022/03/30 11:32:51;;;;;;;14.90;9.15;;;15.70;74.80;;;;;;10867722;32;20328;-72
2022/03/30 11:38:58;;;;;;;15.07;10.63;;;15.80;74.70;;;;;;10872243;32;20020;-72
2022/03/30 11:45:13;;;;;;;11.82;8.10;;;15.70;74.50;;;;;;10871460;32;20015;-72
2022/03/30 11:51:46;;;;;;;12.43;8.82;;;15.80;74.60;;;;;;10871212;32;20015;-72
2022/03/30 11:57:51;;;;;;;14.52;6.10;;;15.90;74.40;;;;;;10866848;32;20059;-72
2022/03/30 12:03:55;;;;;;;12.73;7.07;;;15.80;74.10;;;;;;10870857;32;20348;-72
2022/03/30 12:09:57;;;;;;;13.25;7.75;;;15.80;74.00;;;;;;10870575;32;20028;-72
2022/03/30 12:16:13;;;;;;;20.88;11.27;;;15.80;74.10;;;;;;10869322;32;20398;-72
2022/03/30 12:22:16;;;;;;;14.60;8.88;;;15.70;74.10;;;;;;10854917;32;20442;-72
2022/03/30 12:28:30;;;;;;;21.27;9.30;;;15.70;74.30;;;;;;10869787;32;20432;-72
2022/03/30 12:34:36;;;;;;;21.27;12.27;;;15.70;74.30;;;;;;10869172;32;20027;-72
2022/03/30 12:40:42;;;;;;;20.23;12.73;;;15.70;74.20;;;;;;10869361;32;20047;-72
2022/03/30 12:46:45;;;;;;;19.17;13.25;;;15.50;74.30;;;;;;10869084;32;20054;-72
2022/03/30 12:52:53;;;;;;;14.07;9.38;;;15.40;74.60;;;;;;10869014;32;20058;-72
2022/03/30 12:58:57;;;;;;;14.17;10.30;;;15.30;75.10;;;;;;10868863;32;20032;-72
2022/03/30 13:04:59;;;;;;;16.48;10.43;;;15.40;74.90;;;;;;10867948;32;20074;-72
2022/03/30 13:11:06;;;;;;;23.98;14.13;;;15.40;74.80;;;;;;10868460;32;20031;-72
2022/03/30 13:17:22;;;;;;;17.48;9.90;;;15.50;74.60;;;;;;10790341;33;20095;-72
2022/03/30 13:23:43;;;;;;;26.87;14.32;;;15.50;74.60;;;;;;10789933;33;20032;-72
2022/03/30 13:29:52;;;;;;;27.40;18.83;;;15.50;74.40;;;;;;10789728;33;20054;-72
2022/03/30 13:35:55;;;;;;;33.10;19.67;;;15.40;74.70;;;;;;10788555;33;20063;-72
2022/03/30 13:41:58;;;;;;;20.33;13.60;;;15.50;74.80;;;;;;10789714;33;20066;-72
2022/03/30 13:48:01;;;;;;;20.92;12.23;;;15.50;74.70;;;;;;10845439;32;20063;-72
2022/03/30 13:54:05;;;;;;;19.90;12.00;;;15.60;74.50;;;;;;10866662;32;20062;-72
2022/03/30 14:00:08;;;;;;;18.17;10.90;;;15.70;74.50;;;;;;10853613;32;20419;-72
2022/03/30 14:06:11;;;;;;;20.85;14.23;;;15.70;74.20;;;;;;10866793;32;20034;-72
2022/03/30 14:12:31;;;;;;;18.12;12.00;;;15.70;73.90;;;;;;10866309;32;20031;-72
2022/03/30 14:18:34;;;;;;;27.67;15.05;;;15.70;73.80;;;;;;10871874;32;20380;-72
2022/03/30 14:24:37;;;;;;;19.77;13.93;;;15.60;73.70;;;;;;10872127;32;21242;-72
2022/03/30 14:30:41;;;;;;;23.65;11.35;;;15.70;74.00;;;;;;10867193;32;20494;-72
2022/03/30 14:36:44;;;;;;;23.12;13.32;;;15.70;73.60;;;;;;10872521;32;20352;-72
2022/03/30 14:42:46;;;;;;;17.20;9.63;;;15.80;73.20;;;;;;10868377;32;20035;-72
2022/03/30 14:48:50;;;;;;;11.40;7.25;;;15.70;73.40;;;;;;10873157;32;20028;-72
2022/03/30 14:54:55;;;;;;;20.08;12.85;;;15.80;73.20;;;;;;10873095;32;20380;-72
2022/03/30 15:00:58;;;;;;;17.73;9.52;;;15.90;72.80;;;;;;10872849;32;20454;-72
2022/03/30 15:07:01;;;;;;;11.00;7.68;;;15.90;72.60;;;;;;10867647;32;20054;-72
2022/03/30 15:13:03;;;;;;;10.57;7.30;;;15.90;72.90;;;;;;10852532;32;20082;-72
2022/03/30 15:19:05;;;;;;;11.55;8.45;;;15.90;72.60;;;;;;10872154;27;20407;-71
2022/03/30 15:25:09;;;;;;;13.75;8.02;;;15.90;72.40;;;;;;10895831;32;20023;-71
2022/03/30 15:31:11;;;;;;;12.95;8.48;;;15.80;72.60;;;;;;10912412;32;20035;-71
2022/03/30 15:37:13;;;;;;;12.90;7.12;;;15.90;72.40;;;;;;10904588;32;20073;-71
2022/03/30 15:43:16;;;;;;;10.10;6.05;;;15.80;72.40;;;;;;10908572;32;20053;-71
2022/03/30 15:49:21;;;;;;;15.55;8.73;;;15.90;72.40;;;;;;10908072;32;20050;-71
2022/03/30 15:55:24;;;;;;;8.68;6.47;;;15.90;72.30;;;;;;10906995;32;20035;-71
2022/03/30 16:01:26;;;;;;;13.65;6.87;;;15.90;72.60;;;;;;10907832;32;20028;-71
2022/03/30 16:07:27;;;;;;;13.73;6.60;;;15.90;72.50;;;;;;10907715;32;20031;-71
2022/03/30 16:13:29;;;;;;;22.67;10.02;;;15.90;72.50;;;;;;10906960;32;20027;-71
2022/03/30 16:19:34;;;;;;;10.27;6.15;;;15.90;72.40;;;;;;10902638;32;20054;-71
2022/03/30 16:25:37;;;;;;;10.18;5.97;;;15.80;72.50;;;;;;10906985;32;20046;-71
2022/03/30 16:31:39;;;;;;;12.32;6.12;;;15.80;72.40;;;;;;10906855;32;20085;-71
2022/03/30 16:37:44;;;;;;;11.48;5.45;;;15.80;72.40;;;;;;10905605;32;20053;-70
2022/03/30 16:43:46;;;;;;;11.12;5.72;;;15.90;72.30;;;;;;10906216;32;20054;-70
2022/03/30 16:49:50;;;;;;;15.32;5.35;;;15.90;72.20;;;;;;10906081;32;20041;-70
2022/03/30 16:56:02;;;;;;;8.65;4.65;;;15.80;72.30;;;;;;10901207;32;20038;-70
2022/03/30 17:02:04;;;;;;;10.27;5.05;;;15.90;72.30;;;;;;10902385;32;20027;-70
2022/03/30 17:14:27;;;;;;;9.88;4.70;;;15.70;72.20;;;;;;10901788;32;20065;-70
2022/03/30 17:20:30;;;;;;;17.23;6.28;;;15.80;72.10;;;;;;10901739;32;20423;-70
2022/03/30 17:26:32;;;;;;;8.20;3.78;;;15.70;72.10;;;;;;10929194;32;20045;-70
2022/03/30 17:32:34;;;;;;;10.45;5.15;;;15.70;72.30;;;;;;10941664;32;20080;-70
2022/03/30 17:38:50;;;;;;;15.48;6.85;;;15.70;72.20;;;;;;10941594;32;20035;-70
2022/03/30 17:44:53;;;;;;;13.73;4.55;;;15.70;72.20;;;;;;10913394;32;20038;-70
2022/03/30 17:57:16;;;;;;;8.82;5.07;;;15.70;72.10;;;;;;10937598;32;20057;-70
2022/03/30 18:03:18;;;;;;;8.38;4.03;;;15.70;72.10;;;;;;10940983;32;20035;-70
2022/03/30 18:09:21;;;;;;;8.27;4.40;;;15.70;72.00;;;;;;10940786;32;20030;-70
2022/03/30 18:15:23;;;;;;;9.75;5.40;;;15.70;72.00;;;;;;10940711;32;20031;-70
2022/03/30 18:21:25;;;;;;;12.30;5.47;;;15.70;71.90;;;;;;10936382;32;20027;-70
2022/03/30 18:27:27;;;;;;;8.60;4.97;;;15.60;71.80;;;;;;10940512;32;20027;-70
2022/03/30 18:33:30;;;;;;;8.55;4.20;;;15.60;71.80;;;;;;10940645;32;20370;-70
2022/03/30 18:39:43;;;;;;;9.48;4.43;;;15.60;71.80;;;;;;10941054;32;20041;-70
2022/03/30 18:46:02;;;;;;;8.40;3.78;;;15.50;71.90;;;;;;10940451;32;20027;-70
2022/03/30 18:52:06;;;;;;;16.75;6.95;;;15.50;72.00;;;;;;10940199;32;20019;-70
2022/03/30 18:58:08;;;;;;;8.95;4.78;;;15.40;72.10;;;;;;10939972;32;20031;-70
2022/03/30 19:04:10;;;;;;;10.73;5.75;;;15.40;72.00;;;;;;10944261;32;20409;-70
2022/03/30 19:10:29;;;;;;;11.93;6.37;;;15.30;72.10;;;;;;10942776;32;20418;-70
2022/03/30 19:16:38;;;;;;;10.90;4.95;;;15.30;72.00;;;;;;10946545;32;20039;-70
2022/03/30 19:22:58;;;;;;;14.63;8.20;;;15.30;72.10;;;;;;10946512;32;20384;-70
2022/03/30 19:29:00;;;;;;;;;;;15.20;72.20;;;;;;10946324;32;20046;-70
2022/03/30 19:35:03;;;;;;;17.58;11.98;;;15.20;72.20;;;;;;10945941;32;20278;-70
2022/03/30 19:41:06;;;;;;;18.62;9.63;;;15.20;72.30;;;;;;10944452;32;20031;-70
2022/03/30 19:47:09;;;;;;;14.87;10.40;;;15.20;72.30;;;;;;10945739;32;20027;-70
2022/03/30 19:53:12;;;;;;;17.85;10.23;;;15.30;72.30;;;;;;10945320;32;20050;-71
2022/03/30 19:59:14;;;;;;;13.55;10.32;;;15.20;72.20;;;;;;10945335;32;20040;-70
2022/03/30 20:05:47;;;;;;;20.02;11.12;;;15.20;72.20;;;;;;10946410;32;20031;-71
2022/03/30 20:11:50;;;;;;;14.45;9.50;;;15.10;72.20;;;;;;10941271;32;20066;-71
2022/03/30 20:18:01;;;;;;;13.00;8.77;;;15.20;72.40;;;;;;10942860;32;20053;-70
2022/03/30 20:24:03;;;;;;;24.37;11.07;;;15.10;72.40;;;;;;10931917;32;20023;-70
2022/03/30 20:30:08;;;;;;;15.77;10.27;;;15.10;72.50;;;;;;10945072;32;20049;-70
2022/03/30 20:36:34;;;;;;;13.40;8.63;;;15.00;72.50;;;;;;10944779;32;20039;-70
2022/03/30 20:42:37;;;;;;;9.10;6.30;;;15.00;72.40;;;;;;10944594;32;20027;-70
2022/03/30 20:48:40;;;;;;;11.32;7.93;;;14.80;72.60;;;;;;10944339;32;20097;-70
2022/03/30 20:54:44;;;;;;;13.45;9.20;;;14.80;72.60;;;;;;10943912;32;20023;-71
2022/03/30 21:00:46;;;;;;;10.27;7.22;;;14.80;72.70;;;;;;10930100;32;20026;-71
2022/03/30 21:06:48;;;;;;;20.73;8.43;;;14.70;72.80;;;;;;10943598;32;20339;-71
2022/03/30 21:12:57;;;;;;;13.05;7.60;;;14.70;72.70;;;;;;10943356;32;20367;-71
2022/03/30 21:18:59;;;;;;;9.47;7.83;;;14.70;72.70;;;;;;10943271;32;20049;-71
2022/03/30 21:25:01;;;;;;;14.15;8.48;;;14.60;72.80;;;;;;10942617;32;20232;-71
2022/03/30 21:31:03;;;;;;;17.17;11.55;;;14.60;73.00;;;;;;10942583;32;20077;-71
2022/03/30 21:37:06;;;;;;;11.27;6.70;;;14.60;73.10;;;;;;10942566;32;20023;-71
2022/03/30 21:43:08;;;;;;;8.00;5.62;;;14.60;72.90;;;;;;10928742;32;20340;-71
2022/03/30 21:49:10;;;;;;;11.52;5.85;;;14.50;73.20;;;;;;10942019;32;20081;-71
2022/03/30 21:55:13;;;;;;;13.20;7.90;;;14.50;73.50;;;;;;10941980;32;20022;-71
2022/03/30 22:01:15;;;;;;;15.60;8.80;;;14.60;73.50;;;;;;10941811;32;20331;-71
2022/03/30 22:07:17;;;;;;;11.40;7.00;;;14.60;73.40;;;;;;10941850;32;20050;-71
2022/03/30 22:13:23;;;;;;;9.93;5.68;;;14.50;73.20;;;;;;10928032;32;20081;-71
2022/03/30 22:19:25;;;;;;;8.25;5.95;;;14.50;73.30;;;;;;10941812;32;20038;-71
2022/03/30 22:25:28;;;;;;;11.23;5.95;;;14.40;73.40;;;;;;10941292;32;20038;-71
2022/03/30 22:37:51;;;;;;;14.23;6.65;;;14.20;73.60;;;;;;10941169;32;20034;-71
2022/03/30 22:43:54;;;;;;;11.12;7.57;;;14.20;73.60;;;;;;10948776;32;20030;-71
2022/03/30 22:49:56;;;;;;;9.90;5.68;;;14.30;73.70;;;;;;10948501;32;20046;-70
2022/03/30 22:55:59;;;;;;;11.52;7.43;;;14.20;73.50;;;;;;10948548;32;20312;-70
2022/03/30 23:02:02;;;;;;;20.88;9.98;;;14.20;73.70;;;;;;10948227;32;20052;-70
2022/03/30 23:08:13;;;;;;;14.02;6.03;;;14.30;73.60;;;;;;10947989;32;20056;-70
2022/03/30 23:14:16;;;;;;;14.60;8.35;;;14.30;73.50;;;;;;10943874;32;20054;-70
2022/03/30 23:20:18;;;;;;;16.70;9.13;;;14.20;73.50;;;;;;10948757;27;20331;-70
2022/03/30 23:26:21;;;;;;;25.50;15.30;;;14.30;73.60;;;;;;10947447;32;20100;-70
2022/03/30 23:32:24;;;;;;;19.40;10.55;;;14.20;73.80;;;;;;10948397;32;20027;-69
2022/03/30 23:38:26;;;;;;;15.68;9.70;;;14.10;74.30;;;;;;10946792;32;20054;-70
2022/03/30 23:44:28;;;;;;;15.43;9.65;;;14.00;74.50;;;;;;10946699;32;20022;-69
2022/03/30 23:50:30;;;;;;;16.27;9.88;;;14.00;74.80;;;;;;10946286;32;20081;-69
2022/03/30 23:56:32;;;;;;;14.27;9.35;;;14.00;74.80;;;;;;10946178;32;20057;-69
